Time;durP1;ratioP1;P1;durP2;ratioP2;P2;SDS_P1;SDS_P2;PMS_P1;PMS_P2;Temp;Humidity;BMP_temperature;BMP_pressure;BME280_temperature;BME280_humidity;BME280_pressure;Samples;Min_cycle;Max_cycle;Signal;HPM_P1;HPM_P2
2022/05/11 00:01:31;;;;;;;;;2.00;2.00;;;;;;;;5080152;27;45371;-80
2022/05/11 00:03:57;;;;;;;;;2.00;1.00;;;;;;;;5079793;27;45308;-84
2022/05/11 00:06:23;;;;;;;;;1.00;1.00;;;;;;;;5078951;27;45640;-81
2022/05/11 00:08:48;;;;;;;;;2.00;2.00;;;;;;;;5079723;27;45434;-83
2022/05/11 00:11:14;;;;;;;;;4.00;1.00;;;;;;;;5079833;27;45198;-79
2022/05/11 00:13:40;;;;;;;;;1.00;1.00;;;;;;;;5079899;28;45493;-78
2022/05/11 00:16:05;;;;;;;;;1.00;1.00;;;;;;;;5078091;27;46531;-80
2022/05/11 00:18:30;;;;;;;;;4.50;1.75;;;;;;;;5079383;27;45629;-81
2022/05/11 00:20:55;;;;;;;;;1.25;1.25;;;;;;;;5079659;28;45336;-80
2022/05/11 00:23:21;;;;;;;;;1.00;1.00;;;;;;;;5079464;27;45402;-80
2022/05/11 00:25:46;;;;;;;;;2.00;2.00;;;;;;;;5079384;28;45276;-81
2022/05/11 00:28:12;;;;;;;;;1.50;1.00;;;;;;;;5079692;28;45258;-79
2022/05/11 00:30:37;;;;;;;;;3.25;1.00;;;;;;;;5079734;27;45267;-78
2022/05/11 00:33:03;;;;;;;;;1.33;1.33;;;;;;;;5079085;27;45485;-80
2022/05/11 00:35:30;;;;;;;;;1.50;1.00;;;;;;;;5078458;27;46160;-82
2022/05/11 00:37:55;;;;;;;;;2.00;1.00;;;;;;;;5078952;28;45469;-83
2022/05/11 00:40:21;;;;;;;;;1.00;1.00;;;;;;;;5079513;28;45446;-77
2022/05/11 00:42:46;;;;;;;;;0.33;0.33;;;;;;;;5079270;27;45494;-80
2022/05/11 00:45:12;;;;;;;;;1.00;1.00;;;;;;;;5078801;28;46633;-80
2022/05/11 00:47:39;;;;;;;;;2.67;2.00;;;;;;;;5079141;27;45327;-80
2022/05/11 00:50:07;;;;;;;;;1.00;1.00;;;;;;;;5079346;27;45331;-80
2022/05/11 00:52:47;;;;;;;;;4.00;1.00;;;;;;;;5079182;27;45264;-84
2022/05/11 00:55:15;;;;;;;;;0.00;0.00;;;;;;;;5078070;28;46481;-79
2022/05/11 00:57:45;;;;;;;;;1.00;1.00;;;;;;;;5079275;27;45399;-79
2022/05/11 01:00:13;;;;;;;;;2.00;0.75;;;;;;;;5079161;27;45322;-84
2022/05/11 01:02:40;;;;;;;;;1.67;1.00;;;;;;;;5078896;27;45170;-81
2022/05/11 01:05:06;;;;;;;;;0.75;0.75;;;;;;;;5078968;27;45700;-83
2022/05/11 01:07:31;;;;;;;;;1.67;1.00;;;;;;;;5078768;27;45201;-81
2022/05/11 01:09:57;;;;;;;;;0.75;0.75;;;;;;;;5078806;27;45660;-83
2022/05/11 01:12:25;;;;;;;;;1.75;1.00;;;;;;;;5079023;28;45214;-80
2022/05/11 01:14:52;;;;;;;;;1.25;1.00;;;;;;;;5078411;27;46284;-81
2022/05/11 01:17:18;;;;;;;;;1.00;1.00;;;;;;;;5078747;27;45485;-81
2022/05/11 01:19:45;;;;;;;;;3.00;2.00;;;;;;;;5078752;27;45158;-82
2022/05/11 01:22:29;;;;;;;;;2.00;0.75;;;;;;;;5078422;27;45750;-81
2022/05/11 01:24:54;;;;;;;;;3.67;1.00;;;;;;;;5078066;27;46535;-80
2022/05/11 01:27:27;;;;;;;;;2.50;1.00;;;;;;;;5078345;27;45346;-79
2022/05/11 01:29:54;;;;;;;;;1.00;1.00;;;;;;;;5078499;28;45537;-79
2022/05/11 01:32:20;;;;;;;;;1.33;1.00;;;;;;;;5078654;27;45484;-79
2022/05/11 01:34:46;;;;;;;;;2.00;0.00;;;;;;;;5078312;27;45527;-79
2022/05/11 01:37:11;;;;;;;;;0.00;0.00;;;;;;;;5078378;27;45319;-80
2022/05/11 01:39:37;;;;;;;;;2.00;1.33;;;;;;;;5078492;27;45360;-80
2022/05/11 01:42:02;;;;;;;;;2.00;0.33;;;;;;;;5078212;27;45547;-78
2022/05/11 01:44:27;;;;;;;;;1.00;1.00;;;;;;;;5078038;27;45475;-78
2022/05/11 01:46:54;;;;;;;;;3.00;0.00;;;;;;;;5078059;27;45427;-78
2022/05/11 01:49:21;;;;;;;;;0.25;0.25;;;;;;;;5077926;27;45406;-80
2022/05/11 01:51:46;;;;;;;;;0.67;0.00;;;;;;;;5078566;27;45382;-80
2022/05/11 01:54:11;;;;;;;;;2.50;0.75;;;;;;;;5077795;27;46053;-79
2022/05/11 01:56:37;;;;;;;;;1.50;0.00;;;;;;;;5077967;28;45483;-79
2022/05/11 01:59:02;;;;;;;;;2.00;1.67;;;;;;;;5078071;28;45473;-79
2022/05/11 02:01:29;;;;;;;;;2.50;2.00;;;;;;;;5078190;27;45389;-83
2022/05/11 02:03:54;;;;;;;;;0.50;0.50;;;;;;;;5077921;27;45715;-81
2022/05/11 02:09:04;;;;;;;;;2.67;1.00;;;;;;;;5077442;28;45171;-80
2022/05/11 02:11:30;;;;;;;;;2.00;0.25;;;;;;;;5077892;28;45441;-83
2022/05/11 02:13:57;;;;;;;;;2.50;1.00;;;;;;;;5077687;27;46569;-82
2022/05/11 02:16:23;;;;;;;;;0.00;0.00;;;;;;;;5077618;27;45422;-82
2022/05/11 02:18:48;;;;;;;;;0.75;0.75;;;;;;;;5077966;27;45223;-81
2022/05/11 02:21:13;;;;;;;;;1.00;1.00;;;;;;;;5078046;27;45582;-79
2022/05/11 02:23:39;;;;;;;;;1.00;1.00;;;;;;;;5077751;27;46020;-78
2022/05/11 02:26:04;;;;;;;;;1.00;1.00;;;;;;;;5077433;27;45431;-82
2022/05/11 02:28:30;;;;;;;;;1.00;1.00;;;;;;;;5077987;27;45347;-80
2022/05/11 02:30:57;;;;;;;;;0.00;0.00;;;;;;;;5078007;27;45443;-83
2022/05/11 02:33:23;;;;;;;;;2.25;1.25;;;;;;;;5077771;27;45273;-80
2022/05/11 02:35:49;;;;;;;;;3.00;2.00;;;;;;;;5077296;27;45398;-79
2022/05/11 02:38:22;;;;;;;;;2.00;2.00;;;;;;;;5077454;27;45231;-80
2022/05/11 02:40:48;;;;;;;;;1.33;1.33;;;;;;;;5080555;27;45303;-84
2022/05/11 02:43:13;;;;;;;;;1.00;1.00;;;;;;;;5080825;27;46338;-79
2022/05/11 02:45:39;;;;;;;;;1.00;1.00;;;;;;;;5081135;27;45737;-80
2022/05/11 02:48:06;;;;;;;;;5.00;2.00;;;;;;;;5080809;27;45447;-80
2022/05/11 02:50:37;;;;;;;;;3.75;2.00;;;;;;;;5081176;27;45402;-78
2022/05/11 02:53:07;;;;;;;;;3.00;0.67;;;;;;;;5080857;27;46257;-80
2022/05/11 02:55:33;;;;;;;;;1.00;1.00;;;;;;;;5080312;27;45434;-79
2022/05/11 02:57:58;;;;;;;;;1.00;1.00;;;;;;;;5080484;27;45411;-80
2022/05/11 03:00:24;;;;;;;;;2.67;2.00;;;;;;;;5081081;27;45507;-79
2022/05/11 03:02:49;;;;;;;;;2.67;2.00;;;;;;;;5080886;27;45759;-81
2022/05/11 03:05:15;;;;;;;;;1.67;1.67;;;;;;;;5080566;27;45805;-80
2022/05/11 03:07:40;;;;;;;;;1.00;1.00;;;;;;;;5080837;27;45318;-80
2022/05/11 03:10:08;;;;;;;;;1.33;1.00;;;;;;;;5080631;27;45316;-82
2022/05/11 03:12:33;;;;;;;;;1.00;1.00;;;;;;;;5080041;27;46634;-79
2022/05/11 03:14:59;;;;;;;;;0.67;0.67;;;;;;;;5080516;27;45235;-78
2022/05/11 03:17:24;;;;;;;;;3.00;1.00;;;;;;;;5080444;27;45330;-79
2022/05/11 03:19:50;;;;;;;;;2.00;1.67;;;;;;;;5080754;27;45415;-81
2022/05/11 03:22:15;;;;;;;;;3.00;2.00;;;;;;;;5080501;27;45613;-81
2022/05/11 03:24:40;;;;;;;;;4.67;0.67;;;;;;;;5080182;27;45162;-77
2022/05/11 03:27:06;;;;;;;;;3.33;2.00;;;;;;;;5080685;27;45266;-80
2022/05/11 03:29:31;;;;;;;;;2.33;2.00;;;;;;;;5080349;27;45209;-83
2022/05/11 03:34:41;;;;;;;;;2.67;2.67;;;;;;;;5080227;28;45359;-78
2022/05/11 03:37:08;;;;;;;;;2.67;1.67;;;;;;;;5079946;27;45204;-81
2022/05/11 03:39:33;;;;;;;;;3.00;1.75;;;;;;;;5080247;27;45238;-79
2022/05/11 03:41:59;;;;;;;;;1.67;1.67;;;;;;;;5080024;27;46385;-79
2022/05/11 03:44:24;;;;;;;;;6.33;1.67;;;;;;;;5080258;27;45281;-79
2022/05/11 03:46:49;;;;;;;;;3.67;2.00;;;;;;;;5079788;27;45276;-83
2022/05/11 03:49:15;;;;;;;;;7.00;3.67;;;;;;;;5080285;27;45360;-81
2022/05/11 03:51:40;;;;;;;;;1.67;1.67;;;;;;;;5079976;27;45619;-80
2022/05/11 03:54:06;;;;;;;;;3.67;1.67;;;;;;;;5080131;27;45323;-83
2022/05/11 03:56:31;;;;;;;;;1.33;1.33;;;;;;;;5079575;27;45513;-79
2022/05/11 03:58:56;;;;;;;;;2.00;2.00;;;;;;;;5080168;27;45319;-80
2022/05/11 04:01:23;;;;;;;;;5.50;1.25;;;;;;;;5079833;27;47628;-81
2022/05/11 04:03:48;;;;;;;;;3.67;2.00;;;;;;;;5079669;27;45329;-79
2022/05/11 04:06:13;;;;;;;;;1.67;1.67;;;;;;;;5079619;27;45366;-80
2022/05/11 04:08:38;;;;;;;;;3.00;3.00;;;;;;;;5080074;27;45689;-80
2022/05/11 04:11:04;;;;;;;;;4.33;1.33;;;;;;;;5079571;27;46297;-83
2022/05/11 04:13:29;;;;;;;;;4.67;0.67;;;;;;;;5079857;28;45170;-81
2022/05/11 04:15:54;;;;;;;;;4.00;1.00;;;;;;;;5079448;27;45220;-78
2022/05/11 04:18:20;;;;;;;;;3.75;2.00;;;;;;;;5079744;27;45502;-80
2022/05/11 04:20:46;;;;;;;;;2.33;2.33;;;;;;;;5079320;27;46261;-78
2022/05/11 04:23:11;;;;;;;;;4.33;1.67;;;;;;;;5079406;27;45368;-79
2022/05/11 04:25:36;;;;;;;;;1.50;1.50;;;;;;;;5079408;27;45238;-80
2022/05/11 04:28:02;;;;;;;;;2.33;2.33;;;;;;;;5079403;27;45224;-79
2022/05/11 04:30:31;;;;;;;;;3.67;2.67;;;;;;;;5078713;27;46571;-77
2022/05/11 04:32:56;;;;;;;;;1.50;1.50;;;;;;;;5078651;27;45390;-77
2022/05/11 04:35:21;;;;;;;;;1.67;1.67;;;;;;;;5078761;27;45406;-80
2022/05/11 04:37:47;;;;;;;;;3.33;2.67;;;;;;;;5078014;27;45347;-82
2022/05/11 04:40:12;;;;;;;;;5.00;3.00;;;;;;;;5078482;28;46537;-79
2022/05/11 04:42:38;;;;;;;;;2.00;2.00;;;;;;;;5078556;28;45418;-76
2022/05/11 04:45:03;;;;;;;;;3.33;1.33;;;;;;;;5078593;27;45764;-77
2022/05/11 04:47:29;;;;;;;;;1.50;1.50;;;;;;;;5079306;27;45322;-76
2022/05/11 04:49:54;;;;;;;;;1.25;0.00;;;;;;;;5078484;28;46573;-80
2022/05/11 04:52:19;;;;;;;;;6.67;6.67;;;;;;;;5078808;28;45347;-80
2022/05/11 04:54:48;;;;;;;;;4.00;2.67;;;;;;;;5079055;27;45350;-79
2022/05/11 04:57:13;;;;;;;;;2.67;2.67;;;;;;;;5078826;27;45458;-77
2022/05/11 04:59:40;;;;;;;;;3.67;3.00;;;;;;;;5078027;27;45373;-77
2022/05/11 05:02:06;;;;;;;;;5.00;1.00;;;;;;;;5078071;27;45319;-79
2022/05/11 05:04:32;;;;;;;;;3.00;2.33;;;;;;;;5078778;28;45255;-79
2022/05/11 05:06:57;;;;;;;;;3.00;1.67;;;;;;;;5077024;27;45401;-82
2022/05/11 05:09:22;;;;;;;;;4.33;4.00;;;;;;;;5067113;28;46339;-81
2022/05/11 05:11:49;;;;;;;;;3.33;1.67;;;;;;;;5064885;27;45404;-80
2022/05/11 05:14:14;;;;;;;;;2.00;2.00;;;;;;;;5058456;28;45285;-80
2022/05/11 05:16:39;;;;;;;;;3.00;1.67;;;;;;;;5076819;28;45450;-84
2022/05/11 05:19:05;;;;;;;;;2.00;1.33;;;;;;;;5078566;27;46383;-79
2022/05/11 05:21:31;;;;;;;;;2.00;1.33;;;;;;;;5077359;28;45450;-84
2022/05/11 05:23:56;;;;;;;;;4.33;1.67;;;;;;;;5078019;27;45794;-83
2022/05/11 05:26:21;;;;;;;;;2.67;2.33;;;;;;;;5078364;27;45379;-81
2022/05/11 05:31:31;;;;;;;;;1.33;1.33;;;;;;;;5078194;28;45300;-83
2022/05/11 05:34:00;;;;;;;;;0.67;0.67;;;;;;;;5078109;27;45758;-81
2022/05/11 05:36:28;;;;;;;;;1.00;1.00;;;;;;;;5078278;27;45383;-80
2022/05/11 05:38:54;;;;;;;;;6.67;3.33;;;;;;;;5077969;27;45504;-82
2022/05/11 05:41:19;;;;;;;;;2.75;1.00;;;;;;;;5078407;27;45474;-82
2022/05/11 05:43:45;;;;;;;;;2.25;2.25;;;;;;;;5078229;27;45675;-81
2022/05/11 05:46:10;;;;;;;;;4.00;2.67;;;;;;;;5078710;28;45192;-82
2022/05/11 05:48:35;;;;;;;;;6.00;5.67;;;;;;;;5078119;28;46376;-82
2022/05/11 05:51:01;;;;;;;;;1.00;1.00;;;;;;;;5076706;28;45558;-81
2022/05/11 05:53:26;;;;;;;;;2.00;1.25;;;;;;;;5076929;28;45499;-81
2022/05/11 05:55:52;;;;;;;;;2.33;1.67;;;;;;;;5078197;27;45475;-81
2022/05/11 05:58:17;;;;;;;;;5.33;3.67;;;;;;;;5077925;27;46440;-80
2022/05/11 06:00:43;;;;;;;;;2.00;2.00;;;;;;;;5077992;27;45307;-78
2022/05/11 06:03:09;;;;;;;;;3.00;3.00;;;;;;;;5077405;27;45455;-79
2022/05/11 06:05:34;;;;;;;;;1.33;1.00;;;;;;;;5078296;27;45526;-79
2022/05/11 06:07:59;;;;;;;;;3.00;2.67;;;;;;;;5077232;27;47271;-85
2022/05/11 06:10:25;;;;;;;;;1.00;1.00;;;;;;;;5078521;27;45319;-79
2022/05/11 06:12:51;;;;;;;;;10.00;10.00;;;;;;;;5078140;27;45315;-82
2022/05/11 06:15:16;;;;;;;;;3.33;1.67;;;;;;;;5077830;27;45383;-78
2022/05/11 06:17:41;;;;;;;;;5.00;1.67;;;;;;;;5077777;27;46300;-81
2022/05/11 06:20:09;;;;;;;;;2.67;1.67;;;;;;;;5078029;28;45414;-83
2022/05/11 06:22:35;;;;;;;;;3.50;2.00;;;;;;;;5078005;27;45308;-79
2022/05/11 06:25:00;;;;;;;;;9.33;7.33;;;;;;;;5078059;27;45210;-81
2022/05/11 06:27:26;;;;;;;;;9.00;8.33;;;;;;;;5077277;27;45558;-81
2022/05/11 06:29:53;;;;;;;;;4.75;4.25;;;;;;;;5077677;27;45363;-82
2022/05/11 06:32:19;;;;;;;;;4.00;3.00;;;;;;;;5077223;28;45317;-81
2022/05/11 06:34:44;;;;;;;;;1.00;1.00;;;;;;;;5078171;27;45503;-81
2022/05/11 06:37:09;;;;;;;;;2.33;2.00;;;;;;;;5077328;28;45453;-82
2022/05/11 06:39:35;;;;;;;;;1.67;1.67;;;;;;;;5077253;27;45393;-81
2022/05/11 06:42:01;;;;;;;;;1.67;1.67;;;;;;;;5077815;27;45585;-80
2022/05/11 06:44:26;;;;;;;;;2.00;1.00;;;;;;;;5077406;27;45333;-81
2022/05/11 06:46:51;;;;;;;;;1.25;1.00;;;;;;;;5077545;28;46425;-82
2022/05/11 06:49:17;;;;;;;;;2.75;1.00;;;;;;;;5077055;27;45366;-77
2022/05/11 06:51:42;;;;;;;;;1.67;1.67;;;;;;;;5077304;27;45360;-79
2022/05/11 06:59:42;;;;;;;;;2.00;1.00;;;;;;;;5077166;28;45356;-84
2022/05/11 07:02:08;;;;;;;;;2.67;1.00;;;;;;;;5076916;27;45285;-81
2022/05/11 07:04:35;;;;;;;;;8.33;2.33;;;;;;;;5077536;27;45534;-84
2022/05/11 07:07:00;;;;;;;;;5.33;3.00;;;;;;;;5076822;27;46702;-81
2022/05/11 07:09:27;;;;;;;;;1.33;1.33;;;;;;;;5076710;27;45590;-84
2022/05/11 07:14:37;;;;;;;;;1.67;1.00;;;;;;;;5077206;28;45348;-81
2022/05/11 07:17:02;;;;;;;;;1.33;1.33;;;;;;;;5076730;27;46308;-80
2022/05/11 07:19:28;;;;;;;;;1.33;1.33;;;;;;;;5076927;27;45365;-81
2022/05/11 07:21:54;;;;;;;;;1.00;1.00;;;;;;;;5076988;28;45406;-80
2022/05/11 07:24:19;;;;;;;;;3.00;1.00;;;;;;;;5077369;27;45417;-82
2022/05/11 07:26:45;;;;;;;;;3.00;1.00;;;;;;;;5078798;27;46232;-80
2022/05/11 07:29:11;;;;;;;;;3.67;2.00;;;;;;;;5080259;28;45387;-81
2022/05/11 07:31:37;;;;;;;;;0.75;0.75;;;;;;;;5080107;28;45349;-82
2022/05/11 07:34:02;;;;;;;;;3.75;1.00;;;;;;;;5080286;27;45494;-80
2022/05/11 07:36:28;;;;;;;;;0.67;0.67;;;;;;;;5079278;28;46270;-77
2022/05/11 07:38:53;;;;;;;;;4.67;2.00;;;;;;;;5079642;27;45191;-82
2022/05/11 07:41:18;;;;;;;;;1.25;0.50;;;;;;;;5080375;27;45311;-82
2022/05/11 07:43:43;;;;;;;;;2.33;1.67;;;;;;;;5080611;27;45366;-82
2022/05/11 07:46:09;;;;;;;;;2.00;1.00;;;;;;;;5079843;27;46489;-79
2022/05/11 07:48:34;;;;;;;;;2.33;1.00;;;;;;;;5080526;27;45374;-79
2022/05/11 07:50:59;;;;;;;;;3.33;3.00;;;;;;;;5080164;27;45415;-79
2022/05/11 07:53:25;;;;;;;;;5.00;2.00;;;;;;;;5080448;28;45414;-80
2022/05/11 07:59:52;;;;;;;;;2.00;1.00;;;;;;;;5079574;27;46445;-82
2022/05/11 08:01:20;;;;;;;;;3.67;1.00;;;;;;;;5079944;28;45288;-76
2022/05/11 08:03:45;;;;;;;;;0.33;0.33;;;;;;;;5080276;28;45292;-83
2022/05/11 08:06:10;;;;;;;;;3.00;1.00;;;;;;;;5079520;27;45476;-84
2022/05/11 08:08:36;;;;;;;;;1.00;1.00;;;;;;;;5074063;27;45369;-82
2022/05/11 08:11:01;;;;;;;;;2.00;0.75;;;;;;;;5079653;28;45323;-84
2022/05/11 08:13:28;;;;;;;;;2.00;1.00;;;;;;;;5080012;27;45553;-87
2022/05/11 08:15:53;;;;;;;;;4.33;3.00;;;;;;;;5079065;27;45376;-83
2022/05/11 08:18:18;;;;;;;;;7.00;2.00;;;;;;;;5079357;27;45347;-82
2022/05/11 08:20:46;;;;;;;;;3.67;1.67;;;;;;;;5078690;27;45457;-83
2022/05/11 08:23:12;;;;;;;;;1.00;0.67;;;;;;;;5082714;27;45549;-80
2022/05/11 08:25:38;;;;;;;;;4.00;1.00;;;;;;;;5090903;27;45325;-82
2022/05/11 08:28:08;;;;;;;;;5.00;0.67;;;;;;;;5078972;27;45408;-84
2022/05/11 08:33:23;;;;;;;;;0.25;0.25;;;;;;;;5074104;28;45449;-82
2022/05/11 08:35:50;;;;;;;;;1.50;1.00;;;;;;;;5072539;27;46523;-83
2022/05/11 08:38:18;;;;;;;;;2.67;1.33;;;;;;;;5078021;28;45301;-83
2022/05/11 08:40:59;;;;;;;;;0.00;0.00;;;;;;;;5079964;28;45332;-77
2022/05/11 08:43:26;;;;;;;;;3.00;2.00;;;;;;;;5079323;28;45379;-82
2022/05/11 08:46:14;;;;;;;;;4.33;2.00;;;;;;;;5078425;28;46100;-82
2022/05/11 08:48:48;;;;;;;;;1.33;0.67;;;;;;;;5002089;28;45477;-80
2022/05/11 08:51:20;;;;;;;;;3.00;1.33;;;;;;;;5016715;28;45542;-82
2022/05/11 08:53:49;;;;;;;;;0.33;0.33;;;;;;;;5017074;28;45466;-80
2022/05/11 08:56:17;;;;;;;;;2.33;2.33;;;;;;;;5016477;28;45438;-77
2022/05/11 08:58:42;;;;;;;;;2.00;2.00;;;;;;;;5016161;28;45453;-80
2022/05/11 09:01:11;;;;;;;;;3.00;2.00;;;;;;;;5016418;28;45328;-80
2022/05/11 09:03:41;;;;;;;;;1.67;1.67;;;;;;;;5016784;28;45487;-81
2022/05/11 09:06:10;;;;;;;;;8.67;5.67;;;;;;;;5016195;28;46515;-81
2022/05/11 09:08:38;;;;;;;;;2.67;1.00;;;;;;;;5016548;28;45424;-84
2022/05/11 09:11:04;;;;;;;;;5.00;5.00;;;;;;;;5016662;28;45571;-83
2022/05/11 09:13:29;;;;;;;;;2.33;1.00;;;;;;;;5016046;28;45463;-81
2022/05/11 09:15:54;;;;;;;;;4.00;2.00;;;;;;;;5015834;28;45479;-82
2022/05/11 09:18:32;;;;;;;;;2.00;2.00;;;;;;;;5015825;28;45306;-81
2022/05/11 09:21:02;;;;;;;;;2.00;2.00;;;;;;;;5016396;28;45339;-84
2022/05/11 09:23:30;;;;;;;;;5.67;2.00;;;;;;;;5016449;28;45363;-83
2022/05/11 09:26:00;;;;;;;;;2.67;1.33;;;;;;;;5054262;28;45688;-84
2022/05/11 09:28:28;;;;;;;;;1.67;1.00;;;;;;;;5078294;27;45415;-84
2022/05/11 09:31:01;;;;;;;;;5.00;2.00;;;;;;;;5078137;27;45489;-79
2022/05/11 09:33:31;;;;;;;;;11.00;8.33;;;;;;;;5079798;27;45520;-80
2022/05/11 09:35:57;;;;;;;;;6.00;2.00;;;;;;;;5077672;27;46452;-81
2022/05/11 09:38:22;;;;;;;;;2.33;2.33;;;;;;;;5078511;27;45260;-82
2022/05/11 09:40:54;;;;;;;;;3.00;1.00;;;;;;;;5082595;27;45468;-84
2022/05/11 09:43:41;;;;;;;;;3.67;3.00;;;;;;;;5078323;27;45533;-80
2022/05/11 09:46:16;;;;;;;;;5.67;5.67;;;;;;;;5078488;27;46259;-80
2022/05/11 09:48:52;;;;;;;;;3.00;2.67;;;;;;;;5078415;27;45387;-81
2022/05/11 09:51:22;;;;;;;;;3.00;3.00;;;;;;;;5078961;27;45227;-79
2022/05/11 09:53:56;;;;;;;;;1.00;1.00;;;;;;;;5078861;27;45248;-81
2022/05/11 09:56:28;;;;;;;;;0.67;0.67;;;;;;;;5078372;27;45343;-80
2022/05/11 09:58:54;;;;;;;;;4.00;1.00;;;;;;;;5084574;27;45513;-79
2022/05/11 10:01:25;;;;;;;;;5.00;2.67;;;;;;;;5099096;27;45346;-80
2022/05/11 10:03:54;;;;;;;;;1.33;1.33;;;;;;;;5098166;27;45495;-83
2022/05/11 10:06:20;;;;;;;;;2.67;1.00;;;;;;;;5096096;27;46023;-84
2022/05/11 10:08:48;;;;;;;;;0.67;0.67;;;;;;;;5087830;27;45655;-79
2022/05/11 10:11:16;;;;;;;;;1.33;1.33;;;;;;;;5078314;27;46156;-85
2022/05/11 10:14:02;;;;;;;;;2.33;2.33;;;;;;;;5081735;27;45553;-86
2022/05/11 10:22:25;;;;;;;;;2.00;0.00;;;;;;;;5088414;27;45389;-82
2022/05/11 10:25:05;;;;;;;;;4.00;3.67;;;;;;;;5077225;27;45411;-83
2022/05/11 10:27:46;;;;;;;;;2.00;2.00;;;;;;;;5082020;27;46291;-84
2022/05/11 10:30:14;;;;;;;;;0.00;0.00;;;;;;;;5089938;27;45537;-83
2022/05/11 10:32:46;;;;;;;;;1.67;1.67;;;;;;;;5079458;27;45402;-83
2022/05/11 10:35:15;;;;;;;;;2.67;1.33;;;;;;;;5077149;27;45280;-85
2022/05/11 10:37:41;;;;;;;;;2.00;1.67;;;;;;;;5076562;27;45342;-85
2022/05/11 10:40:11;;;;;;;;;0.00;0.00;;;;;;;;5078514;27;45610;-82
2022/05/11 10:42:50;;;;;;;;;1.00;1.00;;;;;;;;5095966;27;45456;-84
2022/05/11 10:45:26;;;;;;;;;1.67;0.00;;;;;;;;5097806;27;45387;-80
2022/05/11 10:48:01;;;;;;;;;1.33;1.33;;;;;;;;5091262;27;46197;-83
2022/05/11 10:50:29;;;;;;;;;3.67;3.67;;;;;;;;5077362;27;45379;-87
2022/05/11 10:53:00;;;;;;;;;2.33;2.00;;;;;;;;5092951;27;45288;-81
2022/05/11 10:55:34;;;;;;;;;1.00;1.00;;;;;;;;5083958;27;45486;-80
2022/05/11 10:58:29;;;;;;;;;1.67;1.67;;;;;;;;5080251;27;45563;-81
2022/05/11 11:01:15;;;;;;;;;3.00;3.00;;;;;;;;5015501;28;45836;-83
2022/05/11 11:03:58;;;;;;;;;3.00;1.67;;;;;;;;5015184;28;46029;-82
2022/05/11 11:09:30;;;;;;;;;6.00;2.67;;;;;;;;5002047;28;45439;-82
2022/05/11 11:11:58;;;;;;;;;4.67;1.67;;;;;;;;4999012;28;45464;-82
2022/05/11 11:14:25;;;;;;;;;2.00;1.67;;;;;;;;5018059;28;45520;-83
2022/05/11 11:16:50;;;;;;;;;7.67;3.00;;;;;;;;5018113;28;45595;-83
2022/05/11 11:19:15;;;;;;;;;6.00;3.33;;;;;;;;5017953;28;45618;-80
2022/05/11 11:21:41;;;;;;;;;3.00;3.00;;;;;;;;5016965;28;45653;-83
2022/05/11 11:24:09;;;;;;;;;2.33;2.33;;;;;;;;5017733;28;45413;-82
2022/05/11 11:26:53;;;;;;;;;2.67;2.00;;;;;;;;5017647;28;45291;-82
2022/05/11 11:29:44;;;;;;;;;3.00;2.00;;;;;;;;5010694;28;46624;-81
2022/05/11 11:32:20;;;;;;;;;2.67;1.00;;;;;;;;4990809;28;45513;-82
2022/05/11 11:35:11;;;;;;;;;1.67;1.33;;;;;;;;4998799;28;45400;-80
2022/05/11 11:37:38;;;;;;;;;4.33;3.00;;;;;;;;5035846;28;45493;-81
2022/05/11 11:40:12;;;;;;;;;1.33;1.33;;;;;;;;5078198;27;46113;-82
2022/05/11 11:42:39;;;;;;;;;2.00;2.00;;;;;;;;5081894;27;45462;-83
2022/05/11 11:45:06;;;;;;;;;2.67;2.67;;;;;;;;5084613;27;45430;-83
2022/05/11 11:47:33;;;;;;;;;2.00;2.00;;;;;;;;5086272;27;45446;-84
2022/05/11 11:49:58;;;;;;;;;3.33;3.00;;;;;;;;5080947;27;45453;-82
2022/05/11 11:52:32;;;;;;;;;2.00;2.00;;;;;;;;5079622;27;45517;-82
2022/05/11 11:54:57;;;;;;;;;3.67;3.00;;;;;;;;5083262;27;45540;-83
2022/05/11 11:57:23;;;;;;;;;3.00;2.67;;;;;;;;5079459;28;45370;-82
2022/05/11 12:00:07;;;;;;;;;12.33;10.67;;;;;;;;5079435;27;45430;-83
2022/05/11 12:02:32;;;;;;;;;3.00;3.00;;;;;;;;5069587;28;45398;-81
2022/05/11 12:04:58;;;;;;;;;3.33;2.00;;;;;;;;5079499;27;45358;-83
2022/05/11 12:15:42;;;;;;;;;6.00;4.33;;;;;;;;5079149;28;45874;-86
2022/05/11 12:18:21;;;;;;;;;8.67;4.00;;;;;;;;5079648;27;45500;-83
2022/05/11 12:20:46;;;;;;;;;5.00;2.00;;;;;;;;5079228;27;46500;-82
2022/05/11 12:23:17;;;;;;;;;5.00;5.00;;;;;;;;5078854;27;45481;-79
2022/05/11 12:25:49;;;;;;;;;3.00;3.00;;;;;;;;5079203;27;45767;-80
2022/05/11 12:28:29;;;;;;;;;3.00;3.00;;;;;;;;5079352;27;45331;-81
2022/05/11 12:30:55;;;;;;;;;4.67;4.67;;;;;;;;5078736;27;45367;-84
2022/05/11 12:33:22;;;;;;;;;3.00;3.00;;;;;;;;5078996;28;45354;-84
2022/05/11 12:35:49;;;;;;;;;3.33;3.33;;;;;;;;5078874;27;45400;-81
2022/05/11 12:38:24;;;;;;;;;7.00;4.00;;;;;;;;5078664;27;45348;-82
2022/05/11 12:40:51;;;;;;;;;3.33;3.33;;;;;;;;5079233;27;47163;-83
2022/05/11 12:43:28;;;;;;;;;3.33;3.33;;;;;;;;5079050;27;45531;-81
2022/05/11 12:45:58;;;;;;;;;3.00;3.00;;;;;;;;5078442;27;45358;-83
2022/05/11 12:48:44;;;;;;;;;0.00;0.00;;;;;;;;5079023;27;45367;-83
2022/05/11 12:51:12;;;;;;;;;3.33;3.33;;;;;;;;5061540;28;45798;-82
2022/05/11 12:53:39;;;;;;;;;4.00;4.00;;;;;;;;5078830;27;45456;-82
2022/05/11 12:56:10;;;;;;;;;2.33;2.33;;;;;;;;5078635;27;45476;-84
2022/05/11 12:58:41;;;;;;;;;6.00;6.00;;;;;;;;5078846;28;45370;-85
2022/05/11 13:01:06;;;;;;;;;5.00;3.33;;;;;;;;5077888;27;47047;-83
2022/05/11 13:03:36;;;;;;;;;4.33;3.00;;;;;;;;5078268;27;45306;-81
2022/05/11 13:06:06;;;;;;;;;6.33;3.00;;;;;;;;5078624;27;45518;-82
2022/05/11 13:08:35;;;;;;;;;11.33;9.33;;;;;;;;5078436;27;45327;-83
2022/05/11 13:11:00;;;;;;;;;3.00;3.00;;;;;;;;5077983;27;45430;-84
2022/05/11 13:13:27;;;;;;;;;6.00;4.00;;;;;;;;5078190;27;45621;-81
2022/05/11 13:16:00;;;;;;;;;3.00;3.00;;;;;;;;5077068;28;45459;-82
2022/05/11 13:18:30;;;;;;;;;7.33;3.33;;;;;;;;5077847;27;45526;-83
2022/05/11 13:20:58;;;;;;;;;5.33;4.00;;;;;;;;5077163;27;46691;-77
2022/05/11 13:23:33;;;;;;;;;2.00;2.00;;;;;;;;5076551;28;45393;-83
2022/05/11 13:25:59;;;;;;;;;3.67;3.00;;;;;;;;5077350;27;45442;-80
2022/05/11 13:28:27;;;;;;;;;3.00;1.33;;;;;;;;5077680;27;45408;-79
2022/05/11 13:30:54;;;;;;;;;4.00;3.00;;;;;;;;5077482;27;46385;-83
2022/05/11 13:33:26;;;;;;;;;3.00;3.00;;;;;;;;5077517;27;45360;-80
2022/05/11 13:36:09;;;;;;;;;2.33;2.33;;;;;;;;5077862;27;45464;-76
2022/05/11 13:38:34;;;;;;;;;5.33;3.00;;;;;;;;5077672;27;45383;-83
2022/05/11 13:41:01;;;;;;;;;6.00;4.33;;;;;;;;5063203;27;46243;-78
2022/05/11 13:43:26;;;;;;;;;8.67;7.00;;;;;;;;5057382;28;45357;-74
2022/05/11 13:45:54;;;;;;;;;2.00;2.00;;;;;;;;5076376;28;45498;-80
2022/05/11 13:48:31;;;;;;;;;2.00;1.00;;;;;;;;5076760;27;45476;-79
2022/05/11 13:51:15;;;;;;;;;3.00;3.00;;;;;;;;5077401;27;46834;-78
2022/05/11 13:53:41;;;;;;;;;5.67;3.67;;;;;;;;5077288;28;45517;-82
2022/05/11 13:56:21;;;;;;;;;9.33;8.00;;;;;;;;5077461;27;45392;-81
2022/05/11 13:59:06;;;;;;;;;4.33;1.67;;;;;;;;5077693;27;45838;-79
2022/05/11 14:01:45;;;;;;;;;5.00;2.00;;;;;;;;5076218;28;45987;-80
2022/05/11 14:04:10;;;;;;;;;1.00;1.00;;;;;;;;5077195;27;45349;-81
2022/05/11 14:06:55;;;;;;;;;2.00;2.00;;;;;;;;5074352;28;45539;-77
2022/05/11 14:09:21;;;;;;;;;2.67;2.67;;;;;;;;5066120;28;45474;-79
2022/05/11 14:11:46;;;;;;;;;2.00;2.00;;;;;;;;5056300;28;45467;-77
2022/05/11 14:14:12;;;;;;;;;1.00;1.00;;;;;;;;5056690;28;45489;-74
2022/05/11 14:16:38;;;;;;;;;2.00;2.00;;;;;;;;5061918;28;45296;-80
2022/05/11 14:19:03;;;;;;;;;2.67;1.67;;;;;;;;5070974;28;45533;-75
2022/05/11 14:21:28;;;;;;;;;2.67;1.00;;;;;;;;5076194;27;46102;-78
2022/05/11 14:23:54;;;;;;;;;2.00;2.00;;;;;;;;5077113;27;45400;-80
2022/05/11 14:26:19;;;;;;;;;4.00;2.00;;;;;;;;5074479;27;45448;-76
2022/05/11 14:28:45;;;;;;;;;5.00;2.00;;;;;;;;5075266;28;45334;-81
2022/05/11 14:31:13;;;;;;;;;3.00;3.00;;;;;;;;5071625;27;46989;-81
2022/05/11 14:33:38;;;;;;;;;2.00;2.00;;;;;;;;5076450;27;45430;-83
2022/05/11 14:36:05;;;;;;;;;1.33;1.33;;;;;;;;5070847;27;45605;-78
2022/05/11 14:38:31;;;;;;;;;3.67;2.00;;;;;;;;5076742;27;45362;-80
2022/05/11 14:40:57;;;;;;;;;3.00;1.00;;;;;;;;5073561;28;45421;-78
2022/05/11 14:43:24;;;;;;;;;4.00;2.00;;;;;;;;5076220;27;45133;-78
2022/05/11 14:45:51;;;;;;;;;2.00;2.00;;;;;;;;5076653;27;45374;-77
2022/05/11 14:48:23;;;;;;;;;3.00;1.33;;;;;;;;5071763;27;45615;-78
2022/05/11 14:50:49;;;;;;;;;3.00;2.00;;;;;;;;5076289;28;46369;-78
2022/05/11 14:53:14;;;;;;;;;2.00;2.00;;;;;;;;5075748;27;45437;-77
2022/05/11 14:55:39;;;;;;;;;7.00;3.00;;;;;;;;5075960;27;45359;-75
2022/05/11 15:03:33;;;;;;;;;1.67;1.67;;;;;;;;5079205;27;45504;-80
2022/05/11 15:05:59;;;;;;;;;1.67;1.33;;;;;;;;5091030;27;45507;-82
2022/05/11 15:08:24;;;;;;;;;1.00;1.00;;;;;;;;5082769;27;45363;-78
2022/05/11 15:13:29;;;;;;;;;2.00;2.00;;;;;;;;5076347;27;45413;-81
2022/05/11 15:13:36;;;;;;;;;3.00;1.00;;;;;;;;5075918;27;45301;-76
2022/05/11 15:16:01;;;;;;;;;2.00;2.00;;;;;;;;5077399;27;45480;-84
2022/05/11 15:18:28;;;;;;;;;3.00;1.00;;;;;;;;5093323;27;45459;-79
2022/05/11 15:20:53;;;;;;;;;1.00;1.00;;;;;;;;5096062;27;45427;-80
2022/05/11 15:23:18;;;;;;;;;3.00;1.00;;;;;;;;5077886;27;46587;-76
2022/05/11 15:25:44;;;;;;;;;1.00;1.00;;;;;;;;5076369;27;45298;-78
2022/05/11 15:28:09;;;;;;;;;1.00;1.00;;;;;;;;5076069;27;45528;-83
2022/05/11 15:30:36;;;;;;;;;1.00;1.00;;;;;;;;5076232;28;46596;-82
2022/05/11 15:33:02;;;;;;;;;1.67;1.67;;;;;;;;5076068;27;45565;-81